Archival Weather

Chicago O'Hare International

Chicago, Illinois (KORD)

Report from: Saturday, March 18, 2023 8:51 PM CDT
Current time: Saturday, March 2, 2024 3:09 AM CST

Current weather – Weather history – Daily summaries
Weather forecast

Temperature-5.6°C (21.9°F)
Wind chill-12.3°C (9.8°F)
Dew point-13.9°C (7.0°F)
Winds 11 kts (5.7 m/s, 12.7 mph) West-Northwest (290°)
Visibility10 mi. (16.1 km)
Clouds Sky clear
Altimeter30.16 in.Hg (1021 mB)
Relative humidity52 %
Density altitude-2,825 ft. (-861 m)
Sea-level pressure102.2 kPa (1022 mB, 30.19 in.Hg)
Remarks System requires maintenance
Automated weather observing station with precipitation discriminator
Flight conditions Visual Meteorological Conditions
Raw dataKORD 190151Z 29011KT 10SM CLR M06/M14 A3016 RMK AO2 SLP224 T10561139 $
An error has occurred. This application may no longer respond until reloaded. Reload 🗙